Time;durP1;ratioP1;P1;durP2;ratioP2;P2;SDS_P1;SDS_P2;PMS_P1;PMS_P2;Temp;Humidity;BMP_temperature;BMP_pressure;BME280_temperature;BME280_humidity;BME280_pressure;Samples;Min_cycle;Max_cycle;Signal;HPM_P1;HPM_P2
2022/05/30 00:00:32;;;;;;;3.73;1.63;;;7.20;99.90;;;;;;5012155;28;20284;-60
2022/05/30 00:02:58;;;;;;;2.60;1.70;;;7.20;99.90;;;;;;5012229;28;20207;-60
2022/05/30 00:05:29;;;;;;;2.40;1.90;;;7.20;99.90;;;;;;5012535;28;20210;-60
2022/05/30 00:07:56;;;;;;;3.43;1.70;;;7.20;99.90;;;;;;5012355;28;20222;-60
2022/05/30 00:10:22;;;;;;;2.93;2.07;;;7.20;99.90;;;;;;5011971;28;20721;-60
2022/05/30 00:12:49;;;;;;;4.07;1.53;;;7.30;99.90;;;;;;5011948;28;20253;-60
2022/05/30 00:15:18;;;;;;;3.20;1.90;;;7.20;99.90;;;;;;5012283;28;20260;-60
2022/05/30 00:17:45;;;;;;;2.03;1.70;;;7.10;99.90;;;;;;5012078;28;20671;-59
2022/05/30 00:20:13;;;;;;;1.97;1.80;;;7.10;99.90;;;;;;5011833;28;20665;-60
2022/05/30 00:22:42;;;;;;;4.00;1.90;;;7.10;99.90;;;;;;5012176;28;20203;-60
2022/05/30 00:25:09;;;;;;;2.10;1.80;;;7.20;99.90;;;;;;5011996;28;20206;-60
2022/05/30 00:27:36;;;;;;;2.53;1.80;;;7.20;99.90;;;;;;5012290;28;20214;-60
2022/05/30 00:30:03;;;;;;;3.27;1.90;;;7.20;99.90;;;;;;5012069;28;20284;-60
2022/05/30 00:32:32;;;;;;;3.43;1.93;;;7.30;99.90;;;;;;5012193;28;20211;-60
2022/05/30 00:34:58;;;;;;;2.70;2.30;;;7.30;99.90;;;;;;5012285;28;20203;-60
2022/05/30 00:37:25;;;;;;;5.37;2.10;;;7.30;99.90;;;;;;5012486;28;20206;-60
2022/05/30 00:39:54;;;;;;;4.30;2.17;;;7.20;99.90;;;;;;5012756;28;20235;-60
2022/05/30 00:42:23;;;;;;;5.63;2.20;;;7.20;99.90;;;;;;5012433;28;20232;-60
2022/05/30 00:44:50;;;;;;;3.43;2.30;;;7.20;99.90;;;;;;5012167;28;20214;-60
2022/05/30 00:47:18;;;;;;;4.83;2.77;;;7.20;99.90;;;;;;5012021;28;20623;-61
2022/05/30 00:49:47;;;;;;;4.77;2.23;;;7.20;99.90;;;;;;5011877;28;20236;-59
2022/05/30 00:52:18;;;;;;;3.70;1.93;;;7.10;99.90;;;;;;5011664;28;20265;-59
2022/05/30 00:54:50;;;;;;;2.47;2.10;;;7.10;99.90;;;;;;5012081;28;20265;-59
2022/05/30 00:57:21;;;;;;;6.13;2.10;;;7.10;99.90;;;;;;5012038;28;20222;-58
2022/05/30 00:59:53;;;;;;;6.13;2.10;;;7.10;99.90;;;;;;5011987;28;20223;-58
2022/05/30 01:02:21;;;;;;;4.53;2.20;;;7.10;99.90;;;;;;5015390;28;20261;-58
2022/05/30 01:07:33;;;;;;;4.97;2.00;;;7.00;99.90;;;;;;5015835;28;20202;-59
2022/05/30 01:10:02;;;;;;;6.00;1.90;;;7.00;99.90;;;;;;5015368;28;20259;-60
2022/05/30 01:12:38;;;;;;;6.33;2.07;;;7.00;99.90;;;;;;5015022;28;20207;-58
2022/05/30 01:15:08;;;;;;;7.20;1.80;;;6.90;99.90;;;;;;5015799;28;20560;-60
2022/05/30 01:17:39;;;;;;;3.13;1.97;;;6.90;99.90;;;;;;5015162;28;20210;-60
2022/05/30 01:20:15;;;;;;;2.13;1.80;;;6.90;99.90;;;;;;5015629;28;20226;-60
2022/05/30 01:23:02;;;;;;;3.63;1.70;;;6.90;99.90;;;;;;5015413;28;20265;-60
2022/05/30 01:25:45;;;;;;;2.93;2.00;;;6.90;99.90;;;;;;5015450;28;20264;-58
2022/05/30 01:28:27;;;;;;;5.03;2.57;;;6.90;99.90;;;;;;5015539;28;20215;-58
2022/05/30 01:30:54;;;;;;;4.90;1.90;;;6.80;99.90;;;;;;5015320;28;20276;-59
2022/05/30 01:33:20;;;;;;;6.33;2.00;;;6.80;99.90;;;;;;5014897;28;20210;-60
2022/05/30 01:35:47;;;;;;;3.43;2.20;;;6.70;99.90;;;;;;5015218;28;20214;-59
2022/05/30 01:38:14;;;;;;;3.13;1.77;;;6.70;99.90;;;;;;5014963;28;20581;-59
2022/05/30 01:40:40;;;;;;;5.67;1.80;;;6.70;99.90;;;;;;5015426;28;20557;-59
2022/05/30 01:43:07;;;;;;;2.47;1.93;;;6.70;99.90;;;;;;5014861;28;20241;-58
2022/05/30 01:45:35;;;;;;;5.73;1.50;;;6.60;99.90;;;;;;5014994;28;20241;-58
2022/05/30 01:48:02;;;;;;;3.47;1.80;;;6.60;99.90;;;;;;5014962;28;20689;-60
2022/05/30 01:50:29;;;;;;;3.07;2.00;;;6.60;99.90;;;;;;5014931;28;20230;-58
2022/05/30 01:52:56;;;;;;;6.13;2.20;;;6.60;99.90;;;;;;5014344;28;20309;-59
2022/05/30 01:55:23;;;;;;;3.97;1.87;;;6.60;99.90;;;;;;5014641;28;20250;-58
2022/05/30 01:57:50;;;;;;;2.27;1.83;;;6.60;99.90;;;;;;5014413;28;20791;-59
2022/05/30 02:00:17;;;;;;;2.77;1.70;;;6.60;99.90;;;;;;5014441;28;20297;-60
2022/05/30 02:02:45;;;;;;;4.20;2.03;;;6.50;99.90;;;;;;5014120;28;20215;-59
2022/05/30 02:05:12;;;;;;;4.07;1.80;;;6.50;99.90;;;;;;5014796;28;20675;-59
2022/05/30 02:07:39;;;;;;;5.30;1.90;;;6.30;99.90;;;;;;5014946;28;20207;-59
2022/05/30 02:10:07;;;;;;;4.60;1.70;;;6.20;99.90;;;;;;5014815;28;20280;-60
2022/05/30 02:12:33;;;;;;;1.90;1.70;;;6.10;99.90;;;;;;5013837;28;20211;-59
2022/05/30 02:15:00;;;;;;;2.30;1.50;;;6.10;99.90;;;;;;5014719;28;20203;-60
2022/05/30 02:17:26;;;;;;;3.83;1.70;;;6.20;99.90;;;;;;5014474;28;20203;-60
2022/05/30 02:19:54;;;;;;;2.00;1.60;;;6.20;99.90;;;;;;5014029;28;20226;-60
2022/05/30 02:22:23;;;;;;;3.37;2.20;;;6.20;99.90;;;;;;5014021;28;20293;-60
2022/05/30 02:24:50;;;;;;;6.20;1.93;;;6.20;99.90;;;;;;5014217;28;20242;-60
2022/05/30 02:27:18;;;;;;;2.30;1.87;;;6.20;99.90;;;;;;5014016;28;20580;-58
2022/05/30 02:29:45;;;;;;;2.80;2.10;;;6.20;99.90;;;;;;5013862;28;20235;-60
2022/05/30 02:32:12;;;;;;;3.30;2.07;;;6.20;99.90;;;;;;5013730;28;20207;-59
2022/05/30 02:37:24;;;;;;;2.80;2.00;;;6.30;99.90;;;;;;5013838;28;20206;-59
2022/05/30 02:39:51;;;;;;;2.07;1.87;;;6.20;99.90;;;;;;5013704;28;20721;-59
2022/05/30 02:42:17;;;;;;;2.53;2.00;;;6.30;99.90;;;;;;5013457;28;20588;-58
2022/05/30 02:44:45;;;;;;;2.97;1.80;;;6.30;99.90;;;;;;5013694;28;20202;-59
2022/05/30 02:47:12;;;;;;;3.27;1.80;;;6.30;99.90;;;;;;5013642;28;20210;-60
2022/05/30 02:49:38;;;;;;;2.60;1.70;;;6.40;99.90;;;;;;5013738;28;20304;-59
2022/05/30 02:52:06;;;;;;;2.53;1.70;;;6.40;99.90;;;;;;5013400;28;20211;-60
2022/05/30 02:54:34;;;;;;;3.90;2.13;;;6.50;99.90;;;;;;5013507;28;20749;-59
2022/05/30 02:57:01;;;;;;;5.90;2.00;;;6.50;99.90;;;;;;5014029;28;20215;-59
2022/05/30 02:59:29;;;;;;;2.27;2.00;;;6.50;99.90;;;;;;5013282;28;20214;-59
2022/05/30 03:01:56;;;;;;;2.73;1.97;;;6.50;99.90;;;;;;5013346;28;20211;-59
2022/05/30 03:04:22;;;;;;;5.23;3.60;;;6.50;99.90;;;;;;5013514;28;20645;-59
2022/05/30 03:06:50;;;;;;;6.47;4.37;;;6.50;99.90;;;;;;5013472;28;20211;-60
2022/05/30 03:09:18;;;;;;;9.07;2.40;;;6.50;99.90;;;;;;5013131;28;20211;-59
2022/05/30 03:11:46;;;;;;;4.00;2.00;;;6.50;99.90;;;;;;5012933;28;20202;-59
2022/05/30 03:14:13;;;;;;;4.30;2.20;;;6.50;99.90;;;;;;5013174;28;20214;-59
2022/05/30 03:16:40;;;;;;;76.07;59.67;;;6.50;99.90;;;;;;5012945;28;20666;-59
2022/05/30 03:19:06;;;;;;;5.23;4.17;;;6.50;99.90;;;;;;5013058;28;20211;-59
2022/05/30 03:21:33;;;;;;;3.83;2.70;;;6.60;99.90;;;;;;5012467;28;20239;-58
2022/05/30 03:24:00;;;;;;;4.50;2.40;;;6.60;99.90;;;;;;5011947;28;20691;-59
2022/05/30 03:26:26;;;;;;;2.17;1.97;;;6.60;99.90;;;;;;5012626;28;20218;-58
2022/05/30 03:28:54;;;;;;;6.83;2.90;;;6.60;99.90;;;;;;5012824;28;20218;-61
2022/05/30 03:31:21;;;;;;;2.63;2.20;;;6.70;99.90;;;;;;5012861;28;20230;-59
2022/05/30 03:33:48;;;;;;;3.47;2.20;;;6.70;99.90;;;;;;5012898;28;20761;-60
2022/05/30 03:36:17;;;;;;;3.50;2.50;;;6.70;99.90;;;;;;5012728;28;20570;-60
2022/05/30 03:38:44;;;;;;;2.27;2.07;;;6.80;99.90;;;;;;5012551;28;20218;-60
2022/05/30 03:41:11;;;;;;;4.73;1.80;;;6.80;99.90;;;;;;5012365;28;20227;-59
2022/05/30 03:43:37;;;;;;;3.53;2.70;;;6.80;99.90;;;;;;5012416;28;20217;-59
2022/05/30 03:46:06;;;;;;;6.10;2.20;;;6.70;99.90;;;;;;5012628;28;20211;-60
2022/05/30 03:48:33;;;;;;;3.60;1.77;;;6.60;99.90;;;;;;5012476;28;20241;-59
2022/05/30 03:51:01;;;;;;;1.87;1.60;;;6.50;99.90;;;;;;5012330;28;20757;-60
2022/05/30 03:53:27;;;;;;;2.33;1.83;;;6.50;99.90;;;;;;5012162;28;20210;-60
2022/05/30 03:55:54;;;;;;;2.00;1.77;;;6.50;99.90;;;;;;5012294;28;20210;-59
2022/05/30 03:58:21;;;;;;;5.23;2.20;;;6.50;99.90;;;;;;5012583;28;20265;-60
2022/05/30 04:00:48;;;;;;;3.00;2.00;;;6.50;99.90;;;;;;5012453;28;20223;-59
2022/05/30 04:03:16;;;;;;;1.90;1.80;;;6.50;99.90;;;;;;5012159;28;20211;-60
2022/05/30 04:05:43;;;;;;;2.37;1.43;;;6.50;99.90;;;;;;5012218;28;20690;-60
2022/05/30 04:08:09;;;;;;;3.03;2.10;;;6.40;99.90;;;;;;5012204;28;20211;-60
2022/05/30 04:10:37;;;;;;;5.67;2.87;;;6.40;99.90;;;;;;5012203;28;20238;-59
2022/05/30 04:13:07;;;;;;;3.50;2.60;;;6.30;99.90;;;;;;5012272;28;20264;-60
2022/05/30 04:15:34;;;;;;;2.83;2.27;;;6.40;99.90;;;;;;5012255;28;20214;-61
2022/05/30 04:18:00;;;;;;;3.83;2.17;;;6.50;99.90;;;;;;5012197;28;20203;-60
2022/05/30 04:20:29;;;;;;;4.07;2.20;;;6.50;99.90;;;;;;5011997;28;20231;-58
2022/05/30 04:22:56;;;;;;;2.50;2.17;;;6.50;99.90;;;;;;5011814;28;20213;-58
2022/05/30 04:25:23;;;;;;;6.27;2.80;;;6.60;99.90;;;;;;5012195;28;20214;-59
2022/05/30 04:27:50;;;;;;;4.33;2.27;;;6.60;99.90;;;;;;5012143;28;20281;-59
2022/05/30 04:30:17;;;;;;;5.87;2.30;;;6.60;99.90;;;;;;5011911;28;20227;-60
2022/05/30 04:32:44;;;;;;;2.30;2.00;;;6.60;99.90;;;;;;5011867;28;20302;-59
2022/05/30 04:35:12;;;;;;;4.23;2.80;;;6.70;99.90;;;;;;5012764;28;20210;-59
2022/05/30 04:37:40;;;;;;;4.03;2.10;;;6.80;99.90;;;;;;5016218;28;20564;-59
2022/05/30 04:40:11;;;;;;;3.37;2.10;;;6.90;99.90;;;;;;5015694;28;20226;-60
2022/05/30 04:42:38;;;;;;;2.97;2.00;;;7.00;99.90;;;;;;5015726;28;20211;-60
2022/05/30 04:45:05;;;;;;;5.60;4.27;;;7.10;99.90;;;;;;5015797;28;20363;-60
2022/05/30 04:47:33;;;;;;;1.90;1.70;;;7.10;99.90;;;;;;5015633;28;20211;-60
2022/05/30 04:50:00;;;;;;;2.67;2.00;;;7.30;99.90;;;;;;5015600;28;20277;-60
2022/05/30 04:52:27;;;;;;;4.23;1.90;;;7.40;99.90;;;;;;5015642;28;20257;-60
2022/05/30 04:54:55;;;;;;;3.47;1.80;;;7.50;99.90;;;;;;5015838;28;20230;-59
2022/05/30 04:57:21;;;;;;;3.53;1.60;;;7.70;99.90;;;;;;5015448;28;20207;-59
2022/05/30 04:59:48;;;;;;;6.27;2.43;;;7.70;99.90;;;;;;5015496;28;20226;-60
2022/05/30 05:02:16;;;;;;;2.20;1.87;;;7.90;99.90;;;;;;5014977;28;20260;-59
2022/05/30 05:04:43;;;;;;;2.77;1.60;;;8.10;99.90;;;;;;5015408;28;20680;-60
2022/05/30 05:07:10;;;;;;;2.27;1.90;;;8.30;99.90;;;;;;5015612;28;20257;-60
2022/05/30 05:09:46;;;;;;;2.83;2.07;;;8.60;99.90;;;;;;5015505;28;20789;-60
2022/05/30 05:12:14;;;;;;;1.83;1.60;;;9.00;99.90;;;;;;5015045;28;20409;-58
2022/05/30 05:14:41;;;;;;;3.13;1.80;;;10.30;99.90;;;;;;5014999;28;20279;-58
2022/05/30 05:17:09;;;;;;;4.17;2.10;;;12.40;99.90;;;;;;5014981;28;20214;-58
2022/05/30 05:19:39;;;;;;;3.20;1.50;;;14.60;99.90;;;;;;5015233;28;20257;-62
2022/05/30 05:22:06;;;;;;;3.10;1.50;;;16.70;99.90;;;;;;5014921;28;20273;-58
2022/05/30 05:24:34;;;;;;;1.97;1.40;;;18.50;99.90;;;;;;5014887;28;20294;-58
2022/05/30 05:27:00;;;;;;;4.33;1.57;;;19.70;99.90;;;;;;5015016;28;20616;-58
2022/05/30 05:29:28;;;;;;;3.03;1.33;;;19.50;99.80;;;;;;5014792;28;20226;-59
2022/05/30 05:31:55;;;;;;;2.90;1.30;;;18.90;99.60;;;;;;5014442;28;20770;-59
2022/05/30 05:34:22;;;;;;;2.13;1.42;;;19.10;98.00;;;;;;5014765;28;20215;-58
2022/05/30 05:36:49;;;;;;;4.93;1.55;;;18.80;97.70;;;;;;5014621;28;20809;-58
2022/05/30 05:39:17;;;;;;;2.47;1.63;;;18.80;97.50;;;;;;5014787;28;20222;-59
2022/05/30 05:41:45;;;;;;;3.80;1.73;;;19.20;97.60;;;;;;5014729;28;20243;-59
2022/05/30 05:44:13;;;;;;;2.53;1.63;;;19.90;96.40;;;;;;5015138;28;20214;-59
2022/05/30 05:46:42;;;;;;;5.72;1.70;;;21.30;93.50;;;;;;5014308;28;20210;-59
2022/05/30 05:49:09;;;;;;;2.03;1.33;;;22.90;91.40;;;;;;5015186;28;20207;-59
2022/05/30 05:51:38;;;;;;;2.65;1.40;;;24.70;85.70;;;;;;5014713;28;20230;-59
2022/05/30 05:54:05;;;;;;;1.67;1.40;;;24.40;77.50;;;;;;5014427;28;20238;-59
2022/05/30 05:56:32;;;;;;;3.42;1.60;;;23.20;80.00;;;;;;5014252;28;20211;-58
2022/05/30 05:58:59;;;;;;;5.40;1.70;;;22.00;82.10;;;;;;5014546;28;20207;-59
2022/05/30 06:01:27;;;;;;;3.78;1.60;;;21.40;84.80;;;;;;5014390;28;20227;-59
2022/05/30 06:03:57;;;;;;;3.28;1.40;;;22.60;82.90;;;;;;5013914;28;20685;-59
2022/05/30 06:06:26;;;;;;;2.88;1.40;;;24.20;78.10;;;;;;5014107;28;20302;-59
2022/05/30 06:08:54;;;;;;;2.85;1.20;;;25.90;71.80;;;;;;5014150;28;20207;-59
2022/05/30 06:11:21;;;;;;;3.85;1.30;;;27.20;65.30;;;;;;5014143;28;20250;-59
2022/05/30 06:13:49;;;;;;;2.08;1.30;;;27.20;62.30;;;;;;5014102;28;20207;-59
2022/05/30 06:16:19;;;;;;;3.05;1.45;;;27.40;62.50;;;;;;5014080;28;20214;-59
2022/05/30 06:18:45;;;;;;;3.67;1.40;;;27.60;59.40;;;;;;5013921;28;20671;-59
2022/05/30 06:21:14;;;;;;;2.55;1.30;;;26.70;60.60;;;;;;5013700;28;20656;-59
2022/05/30 06:23:41;;;;;;;2.35;1.30;;;27.00;60.70;;;;;;5013522;28;20222;-59
2022/05/30 06:26:09;;;;;;;3.70;1.50;;;27.60;59.70;;;;;;5013895;28;20206;-59
2022/05/30 06:28:37;;;;;;;2.42;1.20;;;26.80;59.80;;;;;;5014034;28;20258;-59
2022/05/30 06:31:08;;;;;;;2.35;1.23;;;26.40;61.70;;;;;;5013462;28;20717;-59
2022/05/30 06:33:35;;;;;;;4.40;2.92;;;26.80;60.00;;;;;;5013496;28;20294;-59
2022/05/30 06:36:03;;;;;;;2.70;1.40;;;26.60;59.70;;;;;;5013411;28;20671;-59
2022/05/30 06:38:31;;;;;;;1.90;1.30;;;25.90;61.30;;;;;;5013829;28;20226;-59
2022/05/30 06:40:58;;;;;;;1.92;1.20;;;26.30;60.60;;;;;;5013601;28;20361;-59
2022/05/30 06:43:24;;;;;;;2.55;1.30;;;26.70;58.20;;;;;;5013401;28;20265;-59
2022/05/30 06:45:51;;;;;;;4.38;1.60;;;26.10;59.10;;;;;;5013408;28;20219;-59
2022/05/30 06:48:18;;;;;;;3.60;1.55;;;24.60;61.00;;;;;;5013180;28;20257;-59
2022/05/30 06:50:44;;;;;;;2.83;1.73;;;24.20;63.10;;;;;;5013223;28;20647;-59
2022/05/30 06:53:11;;;;;;;2.00;1.10;;;24.10;64.20;;;;;;5013247;28;20207;-59
2022/05/30 06:55:39;;;;;;;2.88;1.42;;;25.40;60.80;;;;;;5013281;28;20251;-63
2022/05/30 06:58:15;;;;;;;1.67;1.17;;;26.80;58.20;;;;;;5013228;28;20207;-60
2022/05/30 07:00:44;;;;;;;3.83;1.40;;;28.50;55.90;;;;;;5013009;28;20223;-59
2022/05/30 07:03:11;;;;;;;3.70;1.20;;;30.30;52.70;;;;;;5012822;28;20217;-60
2022/05/30 07:05:39;;;;;;;4.97;1.60;;;31.50;49.40;;;;;;5014428;28;20649;-61
2022/05/30 07:08:06;;;;;;;2.97;1.40;;;32.30;48.80;;;;;;5020605;28;20551;-62
2022/05/30 07:10:35;;;;;;;2.65;1.42;;;33.20;46.40;;;;;;5011852;28;20227;-63
2022/05/30 07:13:04;;;;;;;2.55;1.83;;;33.30;46.20;;;;;;5011605;28;20218;-62
2022/05/30 07:15:31;;;;;;;3.03;1.50;;;33.80;46.10;;;;;;5012054;28;20301;-62
2022/05/30 07:17:59;;;;;;;3.90;1.50;;;34.80;45.10;;;;;;5012788;28;20207;-61
2022/05/30 07:20:25;;;;;;;1.25;1.10;;;36.00;42.80;;;;;;5012842;28;20296;-59
2022/05/30 07:22:52;;;;;;;2.72;1.52;;;35.50;42.00;;;;;;5012766;28;20222;-61
2022/05/30 07:25:19;;;;;;;3.35;1.40;;;35.30;42.40;;;;;;5013378;28;20206;-60
2022/05/30 07:27:45;;;;;;;2.70;1.40;;;36.20;41.10;;;;;;5012728;28;20207;-60
2022/05/30 07:30:14;;;;;;;3.38;1.50;;;37.30;39.00;;;;;;5012931;28;20257;-60
2022/05/30 07:32:40;;;;;;;2.47;1.30;;;38.00;38.60;;;;;;5012608;28;20277;-57
2022/05/30 07:35:07;;;;;;;2.40;1.30;;;38.50;37.60;;;;;;5012555;28;20211;-59
2022/05/30 07:37:34;;;;;;;1.90;1.30;;;39.30;36.50;;;;;;5012394;28;20203;-59
2022/05/30 07:40:01;;;;;;;3.35;1.70;;;39.60;35.30;;;;;;5012379;28;20272;-58
2022/05/30 07:42:27;;;;;;;3.20;1.23;;;39.70;35.20;;;;;;5012223;28;20269;-60
2022/05/30 07:44:54;;;;;;;2.72;1.45;;;40.10;34.70;;;;;;5012205;28;20565;-62
2022/05/30 07:47:22;;;;;;;2.83;1.45;;;40.80;34.70;;;;;;5012366;28;20210;-60
2022/05/30 07:49:49;;;;;;;2.60;1.30;;;40.80;33.60;;;;;;5012233;28;20222;-57
2022/05/30 07:52:17;;;;;;;2.85;1.63;;;37.20;36.60;;;;;;5011917;28;20993;-57
2022/05/30 07:54:44;;;;;;;3.38;1.77;;;36.50;37.60;;;;;;5011999;28;20614;-57
2022/05/30 07:57:11;;;;;;;2.47;1.30;;;37.00;37.10;;;;;;5011921;28;20298;-57
2022/05/30 07:59:38;;;;;;;2.60;1.38;;;37.00;36.60;;;;;;5012481;28;20277;-59
2022/05/30 08:02:06;;;;;;;2.42;1.40;;;37.00;36.50;;;;;;5012092;28;20203;-58
2022/05/30 08:04:36;;;;;;;2.72;1.45;;;36.70;36.50;;;;;;5011995;28;20210;-60
2022/05/30 08:07:05;;;;;;;3.38;1.90;;;37.10;36.00;;;;;;5012175;28;20207;-59
2022/05/30 08:09:32;;;;;;;2.10;1.40;;;37.30;35.70;;;;;;5011578;28;20207;-58
2022/05/30 08:11:58;;;;;;;3.00;1.33;;;36.40;36.90;;;;;;5011389;28;20273;-59
2022/05/30 08:14:25;;;;;;;2.58;1.40;;;35.70;37.00;;;;;;5011926;28;20210;-58
2022/05/30 08:16:52;;;;;;;2.45;1.50;;;33.80;38.90;;;;;;5011972;28;20261;-58
2022/05/30 08:19:18;;;;;;;4.35;1.58;;;31.90;40.90;;;;;;5011567;28;20203;-58
2022/05/30 08:21:46;;;;;;;3.75;1.40;;;30.40;42.00;;;;;;5011897;28;20257;-59
2022/05/30 08:24:13;;;;;;;3.03;1.70;;;30.10;42.60;;;;;;5013168;28;20211;-59
2022/05/30 08:26:39;;;;;;;2.67;1.38;;;30.90;41.50;;;;;;5011939;28;20252;-59
2022/05/30 08:29:06;;;;;;;3.40;1.40;;;30.90;42.00;;;;;;5011631;28;20237;-59
2022/05/30 08:31:33;;;;;;;4.18;1.60;;;29.90;43.70;;;;;;5011510;28;20710;-59
2022/05/30 08:33:59;;;;;;;4.32;1.50;;;30.30;42.40;;;;;;5011592;28;20264;-59
2022/05/30 08:36:26;;;;;;;2.72;1.40;;;31.40;41.90;;;;;;5011667;28;20214;-60
2022/05/30 08:41:46;;;;;;;2.33;1.40;;;32.40;39.90;;;;;;5011689;28;20273;-59
2022/05/30 08:41:46;;;;;;;2.42;1.20;;;31.70;40.10;;;;;;5011864;28;20219;-59
2022/05/30 08:44:13;;;;;;;2.90;1.48;;;28.90;44.00;;;;;;5011872;28;20284;-59
2022/05/30 08:46:48;;;;;;;2.95;1.70;;;26.70;46.90;;;;;;5011746;28;20697;-59
2022/05/30 08:49:22;;;;;;;3.88;1.20;;;25.60;48.20;;;;;;5011866;28;20640;-58
2022/05/30 08:52:20;;;;;;;3.20;1.60;;;24.80;49.40;;;;;;5011950;28;20238;-59
2022/05/30 08:54:59;;;;;;;3.17;1.65;;;23.50;50.40;;;;;;5011865;28;20203;-59
2022/05/30 08:57:33;;;;;;;5.35;1.95;;;22.50;52.60;;;;;;5011773;28;20211;-58
2022/05/30 09:00:10;;;;;;;5.03;1.80;;;21.70;54.30;;;;;;5011610;28;20326;-59
2022/05/30 09:02:42;;;;;;;5.68;4.72;;;21.20;54.70;;;;;;5011566;28;20211;-58
2022/05/30 09:05:15;;;;;;;3.22;1.30;;;20.90;55.30;;;;;;5011494;28;20269;-59
2022/05/30 09:07:51;;;;;;;3.28;1.40;;;20.70;55.00;;;;;;5011861;28;20203;-58
2022/05/30 09:10:25;;;;;;;2.97;1.48;;;20.50;55.40;;;;;;5011278;28;20226;-58
2022/05/30 09:12:56;;;;;;;3.92;1.40;;;20.40;56.50;;;;;;5011166;28;20262;-59
2022/05/30 09:15:26;;;;;;;2.90;1.25;;;20.20;56.20;;;;;;5011510;28;20734;-59
2022/05/30 09:17:57;;;;;;;4.07;1.45;;;20.00;56.30;;;;;;5011281;28;20737;-58
2022/05/30 09:20:25;;;;;;;3.45;1.42;;;19.70;58.00;;;;;;5011170;28;20257;-59
2022/05/30 09:22:53;;;;;;;2.35;1.40;;;19.20;58.50;;;;;;5014091;28;20207;-57
2022/05/30 09:28:09;;;;;;;1.90;1.35;;;18.80;58.90;;;;;;5028046;28;20210;-61
2022/05/30 09:30:43;;;;;;;4.38;1.50;;;18.90;58.90;;;;;;5033432;28;20283;-58
2022/05/30 09:33:22;;;;;;;4.60;1.35;;;19.00;59.50;;;;;;5032898;28;20617;-58
2022/05/30 09:35:49;;;;;;;2.97;1.60;;;19.10;58.90;;;;;;5033468;28;20218;-59
2022/05/30 09:38:19;;;;;;;2.55;1.45;;;19.40;59.10;;;;;;5033404;28;20206;-60
2022/05/30 09:40:51;;;;;;;3.03;1.30;;;19.80;59.10;;;;;;5033446;28;20237;-60
2022/05/30 09:43:25;;;;;;;3.70;1.50;;;20.20;58.60;;;;;;5033249;28;20256;-60
2022/05/30 09:45:52;;;;;;;2.65;1.52;;;20.30;58.70;;;;;;5033145;28;20217;-59
2022/05/30 09:48:20;;;;;;;3.03;1.50;;;20.00;58.40;;;;;;5033922;28;20296;-58
2022/05/30 09:50:49;;;;;;;3.40;1.40;;;19.90;60.30;;;;;;5033270;28;20555;-60
2022/05/30 09:53:41;;;;;;;2.65;1.15;;;20.10;59.70;;;;;;5033008;28;20226;-59
2022/05/30 09:56:11;;;;;;;2.17;1.38;;;20.50;58.70;;;;;;5033049;28;20230;-59
2022/05/30 09:58:43;;;;;;;2.50;1.48;;;21.00;56.40;;;;;;5033355;28;20481;-58
2022/05/30 10:01:10;;;;;;;4.32;1.85;;;21.20;55.90;;;;;;5033103;28;20309;-60
2022/05/30 10:03:40;;;;;;;2.92;1.33;;;21.40;56.00;;;;;;5032834;28;20210;-59
2022/05/30 10:06:15;;;;;;;6.38;2.00;;;21.60;55.70;;;;;;5032668;28;20662;-59
2022/05/30 10:08:43;;;;;;;3.15;1.60;;;21.80;54.40;;;;;;5032831;28;20686;-59
2022/05/30 10:11:25;;;;;;;2.05;1.30;;;22.00;54.50;;;;;;5032479;28;20733;-59
2022/05/30 10:13:53;;;;;;;2.85;1.23;;;22.10;53.70;;;;;;5032803;28;20206;-57
2022/05/30 10:16:30;;;;;;;4.15;1.20;;;22.20;53.60;;;;;;5032963;28;20209;-57
2022/05/30 10:19:00;;;;;;;4.13;1.58;;;22.40;52.90;;;;;;5032791;28;20210;-62
2022/05/30 10:21:38;;;;;;;2.90;1.15;;;22.70;53.30;;;;;;5033490;28;20245;-57
2022/05/30 10:30:10;;;;;;;3.58;1.15;;;23.10;51.20;;;;;;5033412;28;20667;-58
2022/05/30 10:32:47;;;;;;;3.85;1.33;;;22.60;51.60;;;;;;5033089;28;20226;-58
2022/05/30 10:35:21;;;;;;;3.17;1.48;;;22.20;52.40;;;;;;5033444;28;20264;-58
2022/05/30 10:38:18;;;;;;;4.72;1.40;;;22.00;52.70;;;;;;5033328;28;20210;-58
2022/05/30 10:40:59;;;;;;;3.88;1.17;;;22.30;52.30;;;;;;5017093;28;20284;-57
2022/05/30 10:43:35;;;;;;;2.92;1.30;;;22.50;51.40;;;;;;5033199;28;20638;-59
2022/05/30 10:46:06;;;;;;;3.40;1.45;;;22.80;50.50;;;;;;5033471;28;20206;-59
2022/05/30 10:48:38;;;;;;;3.45;1.35;;;23.00;51.10;;;;;;5033822;28;20732;-58
2022/05/30 10:51:09;;;;;;;1.98;1.10;;;23.30;50.90;;;;;;5033145;28;20641;-58
2022/05/30 10:53:47;;;;;;;2.72;1.17;;;23.50;50.50;;;;;;5032513;28;20816;-57
2022/05/30 10:56:18;;;;;;;1.90;1.13;;;23.60;49.80;;;;;;5033476;28;20296;-58
2022/05/30 10:58:52;;;;;;;3.03;1.35;;;23.70;49.70;;;;;;5034236;28;20217;-58
2022/05/30 11:01:33;;;;;;;3.20;1.48;;;23.60;49.40;;;;;;5034137;28;20234;-57
2022/05/30 11:04:19;;;;;;;2.40;1.20;;;23.30;50.10;;;;;;5033552;28;20206;-58
2022/05/30 11:06:49;;;;;;;2.20;1.13;;;23.30;50.50;;;;;;5034264;28;20218;-57
2022/05/30 11:09:22;;;;;;;5.20;1.42;;;23.00;50.20;;;;;;5033535;28;20296;-58
2022/05/30 11:11:56;;;;;;;2.70;1.20;;;22.80;50.70;;;;;;5033383;28;20213;-58
2022/05/30 11:14:32;;;;;;;2.88;1.80;;;22.90;50.00;;;;;;5034477;28;20212;-58
2022/05/30 11:17:06;;;;;;;4.95;1.38;;;23.00;50.20;;;;;;5035396;28;20732;-58
2022/05/30 11:22:06;;;;;;;1.75;1.23;;;22.90;50.00;;;;;;5047856;22;20409;-58
2022/05/30 11:24:34;;;;;;;2.42;1.17;;;22.90;50.60;;;;;;5032966;28;20217;-57
2022/05/30 11:27:11;;;;;;;1.40;1.15;;;22.80;49.70;;;;;;5033000;28;20210;-58
2022/05/30 11:30:03;;;;;;;2.42;1.42;;;23.00;49.70;;;;;;5032721;28;20234;-58
2022/05/30 11:32:54;;;;;;;1.92;1.08;;;23.10;49.60;;;;;;5033023;28;20237;-59
2022/05/30 11:35:32;;;;;;;3.35;1.30;;;23.00;50.00;;;;;;5016506;28;20206;-59
2022/05/30 11:38:14;;;;;;;4.25;1.45;;;22.50;50.70;;;;;;5032811;28;20651;-59
2022/05/30 11:40:51;;;;;;;3.63;1.52;;;21.60;52.10;;;;;;5033225;28;20299;-59
2022/05/30 11:43:41;;;;;;;1.90;1.27;;;20.80;53.00;;;;;;5032233;28;20202;-59
2022/05/30 11:46:20;;;;;;;4.68;1.40;;;20.60;53.40;;;;;;5031751;28;20217;-58
2022/05/30 11:48:56;;;;;;;2.60;1.58;;;20.60;53.40;;;;;;5032690;28;20210;-60
2022/05/30 11:51:35;;;;;;;4.05;1.20;;;20.50;52.90;;;;;;5032574;28;20268;-58
2022/05/30 11:54:25;;;;;;;4.50;1.30;;;20.50;52.60;;;;;;5032367;28;20229;-59
2022/05/30 11:57:05;;;;;;;2.67;1.10;;;20.60;52.20;;;;;;5032250;28;20213;-59
2022/05/30 11:59:49;;;;;;;2.38;1.00;;;20.80;52.20;;;;;;5032365;28;20210;-57
2022/05/30 12:02:22;;;;;;;1.98;1.23;;;20.90;51.80;;;;;;5032541;28;20203;-59
2022/05/30 12:05:25;;;;;;;1.77;1.08;;;21.10;51.40;;;;;;5032433;28;20215;-60
2022/05/30 12:08:24;;;;;;;3.53;1.20;;;21.20;51.30;;;;;;5032184;28;20208;-58
2022/05/30 12:11:12;;;;;;;2.15;1.10;;;21.20;51.80;;;;;;5011878;28;20635;-59
2022/05/30 12:13:52;;;;;;;2.78;1.15;;;21.40;51.50;;;;;;5031770;28;20710;-59
2022/05/30 12:16:35;;;;;;;1.83;1.20;;;21.40;51.50;;;;;;5031924;28;20772;-60
2022/05/30 12:24:56;;;;;;;1.05;0.73;;;21.90;50.30;;;;;;5032002;28;20284;-58
2022/05/30 12:27:39;;;;;;;2.08;1.05;;;22.20;48.80;;;;;;5031499;28;20688;-59
2022/05/30 12:30:14;;;;;;;3.45;1.08;;;22.30;48.10;;;;;;5031690;28;20230;-59
2022/05/30 12:32:46;;;;;;;2.83;1.20;;;22.50;46.60;;;;;;5031689;28;20226;-59
2022/05/30 12:35:30;;;;;;;1.88;1.00;;;22.40;47.20;;;;;;5031745;28;20670;-59
2022/05/30 12:38:17;;;;;;;1.98;1.10;;;22.30;46.10;;;;;;5031730;28;20682;-59
2022/05/30 12:40:53;;;;;;;2.70;0.95;;;22.10;46.90;;;;;;5031332;28;20230;-59
2022/05/30 12:43:35;;;;;;;2.15;1.10;;;22.00;47.90;;;;;;5031389;28;20604;-59
2022/05/30 12:46:24;;;;;;;4.20;1.10;;;21.50;47.90;;;;;;5031533;28;20697;-59
2022/05/30 12:49:14;;;;;;;3.47;1.30;;;21.40;48.50;;;;;;5029122;28;20202;-59
2022/05/30 12:52:01;;;;;;;2.53;1.10;;;21.50;47.90;;;;;;5032142;28;20226;-59
2022/05/30 12:54:35;;;;;;;2.03;0.90;;;21.60;47.20;;;;;;5031637;28;20301;-59
2022/05/30 12:57:27;;;;;;;2.33;1.25;;;21.80;47.30;;;;;;5033571;28;20210;-59
2022/05/30 13:00:04;;;;;;;2.15;1.10;;;22.00;46.60;;;;;;5035176;28;20206;-59
2022/05/30 13:03:03;;;;;;;2.47;1.60;;;22.30;45.50;;;;;;5035407;28;20438;-59
2022/05/30 13:05:43;;;;;;;2.88;1.83;;;22.60;45.70;;;;;;5035350;28;20210;-58
2022/05/30 13:08:43;;;;;;;2.00;1.05;;;22.70;46.00;;;;;;5035631;28;20210;-58
2022/05/30 13:11:13;;;;;;;3.15;1.00;;;22.30;46.20;;;;;;5034852;28;20222;-58
2022/05/30 13:13:47;;;;;;;1.80;0.93;;;21.90;47.10;;;;;;5034982;28;20316;-58
2022/05/30 13:16:25;;;;;;;2.58;1.08;;;21.70;46.20;;;;;;5034923;28;20680;-59
2022/05/30 13:18:51;;;;;;;3.10;1.30;;;21.50;46.70;;;;;;5035185;28;20236;-58
2022/05/30 13:21:20;;;;;;;1.80;0.80;;;21.20;46.60;;;;;;5035130;28;20230;-58
2022/05/30 13:23:47;;;;;;;2.78;0.82;;;21.20;47.10;;;;;;5034771;28;20264;-58
2022/05/30 13:26:18;;;;;;;2.00;1.00;;;21.30;44.80;;;;;;5034913;28;20596;-56
2022/05/30 13:28:45;;;;;;;1.85;0.82;;;21.10;43.70;;;;;;5034785;28;20301;-58
2022/05/30 13:31:14;;;;;;;2.30;0.80;;;21.00;43.20;;;;;;5034685;28;20596;-58